createdAt,value
2023-04-23T00:00:58.099Z,82.46
2023-04-23T00:03:29.722Z,82.42
2023-04-23T00:06:01.063Z,82.20
2023-04-23T00:08:35.092Z,82.34
2023-04-23T00:11:06.411Z,82.19
2023-04-23T00:13:36.616Z,82.29
2023-04-23T00:16:07.456Z,82.61
2023-04-23T00:18:37.859Z,82.64
2023-04-23T00:21:08.893Z,82.52
2023-04-23T00:23:42.062Z,82.66
2023-04-23T00:26:12.088Z,82.83
2023-04-23T00:28:42.173Z,82.67
2023-04-23T00:31:12.190Z,82.86
2023-04-23T00:33:42.188Z,82.61
2023-04-23T00:36:12.241Z,82.88
2023-04-23T00:38:44.782Z,82.87
2023-04-23T00:41:15.057Z,83.09
2023-04-23T00:43:45.978Z,83.10
2023-04-23T00:46:16.987Z,83.10
2023-04-23T00:48:48.546Z,83.28
2023-04-23T00:53:53.190Z,83.32
2023-04-23T00:56:24.107Z,83.44
2023-04-23T00:58:54.700Z,83.45
2023-04-23T01:01:26.325Z,83.50
2023-04-23T01:03:57.012Z,83.60
2023-04-23T01:06:29.130Z,83.58
2023-04-23T01:09:02.066Z,83.72
2023-04-23T01:11:32.634Z,83.60
2023-04-23T01:14:02.619Z,83.63
2023-04-23T01:16:32.606Z,83.70
2023-04-23T01:19:02.634Z,83.50
2023-04-23T01:21:33.455Z,83.62
2023-04-23T01:24:06.413Z,83.83
2023-04-23T01:26:37.035Z,83.88
2023-04-23T01:29:07.132Z,83.83
2023-04-23T01:31:37.290Z,83.93
2023-04-23T01:34:07.475Z,83.68
2023-04-23T01:36:38.716Z,83.71
2023-04-23T01:39:11.823Z,83.76
2023-04-23T01:41:43.039Z,83.74
2023-04-23T01:44:13.190Z,83.71
2023-04-23T01:46:43.457Z,83.83
2023-04-23T01:49:13.888Z,83.41
2023-04-23T01:51:44.246Z,83.56
2023-04-23T01:54:16.803Z,83.56
2023-04-23T01:56:47.230Z,83.45
2023-04-23T01:59:17.068Z,83.31
2023-04-23T02:01:49.229Z,83.60
2023-04-23T02:04:20.354Z,83.15
2023-04-23T02:06:53.122Z,83.09
2023-04-23T02:09:25.620Z,83.11
2023-04-23T02:11:55.501Z,83.00
2023-04-23T02:14:25.761Z,83.12
2023-04-23T02:16:56.131Z,82.51
2023-04-23T02:19:26.690Z,82.79
2023-04-23T02:21:56.766Z,82.61
2023-04-23T02:24:29.413Z,82.94
2023-04-23T02:26:59.903Z,83.02
2023-04-23T02:29:29.789Z,82.87
2023-04-23T02:31:59.961Z,82.83
2023-04-23T02:34:30.024Z,82.86
2023-04-23T02:36:59.866Z,82.91
2023-04-23T02:39:32.660Z,82.97
2023-04-23T02:42:02.785Z,83.08
2023-04-23T02:44:32.688Z,82.90
2023-04-23T02:47:02.745Z,82.95
2023-04-23T02:49:32.844Z,83.06
2023-04-23T02:52:02.730Z,83.13
2023-04-23T02:54:37.259Z,83.00
2023-04-23T02:57:07.563Z,83.05
2023-04-23T02:59:37.551Z,83.08
2023-04-23T03:02:07.528Z,83.14
2023-04-23T03:04:37.749Z,83.51
2023-04-23T03:07:07.680Z,83.18
2023-04-23T03:09:40.477Z,83.48
2023-04-23T03:12:10.765Z,83.60
2023-04-23T03:14:41.245Z,83.54
2023-04-23T03:17:11.414Z,83.68
2023-04-23T03:19:41.305Z,84.12
2023-04-23T03:22:11.316Z,84.28
2023-04-23T03:24:43.990Z,84.71
2023-04-23T03:27:13.948Z,85.07
2023-04-23T03:29:44.296Z,85.19
2023-04-23T03:32:15.672Z,85.47
2023-04-23T03:34:45.555Z,85.80
2023-04-23T03:37:17.206Z,86.74
2023-04-23T03:39:49.871Z,86.91
2023-04-23T03:42:19.914Z,87.04
2023-04-23T03:44:49.832Z,87.40
2023-04-23T03:47:19.736Z,87.56
2023-04-23T03:49:49.773Z,87.81
2023-04-23T03:52:20.002Z,87.86
2023-04-23T03:54:52.672Z,87.86
2023-04-23T03:57:24.502Z,87.78
2023-04-23T03:59:54.362Z,87.91
2023-04-23T04:02:24.683Z,87.85
2023-04-23T04:04:55.450Z,87.73
2023-04-23T04:07:26.136Z,87.80
2023-04-23T04:09:58.690Z,87.70
2023-04-23T04:12:28.775Z,87.74
2023-04-23T04:14:58.953Z,87.48
2023-04-23T04:17:29.008Z,87.26
2023-04-23T04:19:58.938Z,87.26
2023-04-23T04:22:28.846Z,87.15
2023-04-23T04:25:01.324Z,87.21
2023-04-23T04:27:33.638Z,87.47
2023-04-23T04:30:05.754Z,87.43
2023-04-23T04:32:36.044Z,87.26
2023-04-23T04:35:05.977Z,87.17
2023-04-23T04:37:37.079Z,87.54
2023-04-23T04:40:11.793Z,88.07
2023-04-23T04:42:42.978Z,89.03
2023-04-23T04:45:14.082Z,89.31
2023-04-23T04:47:44.097Z,89.45
2023-04-23T04:50:14.745Z,89.96
2023-04-23T04:52:47.808Z,90.34
2023-04-23T04:55:20.326Z,90.92
2023-04-23T04:57:50.426Z,91.04
2023-04-23T05:00:28.021Z,91.36
2023-04-23T05:02:58.858Z,91.20
2023-04-23T05:05:30.416Z,91.22
2023-04-23T05:08:02.608Z,91.54
2023-04-23T05:10:35.307Z,91.78
2023-04-23T05:13:05.305Z,92.74
2023-04-23T05:15:35.198Z,93.46
2023-04-23T05:18:06.847Z,94.28
2023-04-23T05:20:37.013Z,94.25
2023-04-23T05:23:07.186Z,94.68
2023-04-23T05:25:39.953Z,95.60
2023-04-23T05:28:10.152Z,95.90
2023-04-23T05:30:40.153Z,97.15
2023-04-23T05:33:10.254Z,95.61
2023-04-23T05:35:40.301Z,95.85
2023-04-23T05:38:10.411Z,95.67
2023-04-23T05:40:43.040Z,96.70
2023-04-23T05:43:13.190Z,95.94
2023-04-23T05:45:46.268Z,96.12
2023-04-23T05:48:16.314Z,96.44
2023-04-23T05:50:46.671Z,97.09
2023-04-23T05:53:18.209Z,96.97
2023-04-23T05:55:50.932Z,97.56
2023-04-23T05:58:21.037Z,97.15
2023-04-23T06:00:50.995Z,97.01
2023-04-23T06:03:21.288Z,97.72
2023-04-23T06:05:51.505Z,98.31
2023-04-23T06:08:23.281Z,97.94
2023-04-23T06:10:57.237Z,97.94
2023-04-23T06:13:28.579Z,99.20
2023-04-23T06:15:58.470Z,98.98
2023-04-23T06:18:28.534Z,98.33
2023-04-23T06:20:58.375Z,98.02
2023-04-23T06:23:29.459Z,98.03
2023-04-23T06:26:02.074Z,98.62
2023-04-23T06:28:31.976Z,98.42
2023-04-23T06:31:02.894Z,98.41
2023-04-23T06:33:33.038Z,98.14
2023-04-23T06:36:03.059Z,97.98
2023-04-23T06:38:32.990Z,97.92
2023-04-23T06:41:06.470Z,98.22
2023-04-23T06:43:36.495Z,98.13
2023-04-23T06:46:06.416Z,97.98
2023-04-23T06:48:37.807Z,98.10
2023-04-23T06:51:08.345Z,97.70
2023-04-23T06:53:39.149Z,97.78
2023-04-23T06:56:12.140Z,97.73
2023-04-23T06:58:42.042Z,97.93
2023-04-23T07:01:12.164Z,98.09
2023-04-23T07:03:45.320Z,98.31
2023-04-23T07:06:15.392Z,97.83
2023-04-23T07:08:45.979Z,97.47
2023-04-23T07:11:18.554Z,96.58
2023-04-23T07:13:49.268Z,96.60
2023-04-23T07:16:21.694Z,95.71
2023-04-23T07:18:52.890Z,95.38
2023-04-23T07:21:22.863Z,93.83
2023-04-23T07:23:52.842Z,93.15
2023-04-23T07:26:25.658Z,92.52
2023-04-23T07:28:55.879Z,91.15
2023-04-23T07:31:26.211Z,89.48
2023-04-23T07:33:56.484Z,88.51
2023-04-23T07:36:26.834Z,87.86
2023-04-23T07:38:59.436Z,85.53
2023-04-23T07:41:32.067Z,84.46
2023-04-23T07:44:02.027Z,80.35
2023-04-23T07:46:32.367Z,82.34
2023-04-23T07:49:02.364Z,79.75
2023-04-23T07:51:32.343Z,79.85
2023-04-23T07:54:02.387Z,78.70
2023-04-23T07:56:35.404Z,77.28
2023-04-23T07:59:05.493Z,75.82
2023-04-23T08:01:36.092Z,76.72
2023-04-23T08:04:06.230Z,76.67
2023-04-23T08:06:39.628Z,77.83
2023-04-23T08:09:10.086Z,76.70
2023-04-23T08:11:42.743Z,75.42
2023-04-23T08:14:12.892Z,75.20
2023-04-23T08:16:42.768Z,73.35
2023-04-23T08:19:12.764Z,74.25
2023-04-23T08:21:42.776Z,71.10
2023-04-23T08:24:12.773Z,71.98
2023-04-23T08:26:45.332Z,72.22
2023-04-23T08:29:15.346Z,68.24
2023-04-23T08:31:45.428Z,69.01
2023-04-23T08:34:15.805Z,69.66
2023-04-23T08:36:46.609Z,68.24
2023-04-23T08:39:19.099Z,68.86
2023-04-23T08:41:57.858Z,68.56
2023-04-23T08:44:29.485Z,68.31
2023-04-23T08:47:01.195Z,67.77
2023-04-23T08:49:36.660Z,66.91
2023-04-23T08:52:17.947Z,65.25
2023-04-23T08:54:52.366Z,65.38
2023-04-23T08:57:25.698Z,64.15
2023-04-23T08:59:56.372Z,62.89
2023-04-23T09:02:27.361Z,64.77
2023-04-23T09:04:57.736Z,65.59
2023-04-23T09:07:28.019Z,63.62
2023-04-23T09:09:57.848Z,63.29
2023-04-23T09:12:30.913Z,65.63
2023-04-23T09:15:00.935Z,66.15
2023-04-23T09:17:33.103Z,64.92
2023-04-23T09:20:04.168Z,63.36
2023-04-23T09:22:47.076Z,63.88
2023-04-23T09:25:19.594Z,64.37
2023-04-23T09:27:54.311Z,61.56
2023-04-23T09:30:25.883Z,59.79
2023-04-23T09:32:58.295Z,60.83
2023-04-23T09:35:31.616Z,62.36
2023-04-23T09:38:08.170Z,62.12
2023-04-23T09:40:39.072Z,59.68
2023-04-23T09:43:14.039Z,57.98
2023-04-23T09:45:51.681Z,59.45
2023-04-23T09:48:21.670Z,59.78
2023-04-23T09:50:51.604Z,61.01
2023-04-23T09:53:24.361Z,57.54
2023-04-23T09:55:56.499Z,59.59
2023-04-23T09:58:29.210Z,58.15
2023-04-23T10:01:10.491Z,54.77
2023-04-23T10:03:46.231Z,58.36
2023-04-23T10:06:36.387Z,57.00
2023-04-23T10:09:08.388Z,57.78
2023-04-23T10:11:38.465Z,58.95
2023-04-23T10:14:12.124Z,55.15
2023-04-23T10:16:49.128Z,54.67
2023-04-23T10:19:22.837Z,55.32
2023-04-23T10:22:02.352Z,56.64
2023-04-23T10:24:43.819Z,54.41
2023-04-23T10:27:27.004Z,54.55
2023-04-23T10:30:10.827Z,53.98
2023-04-23T10:32:41.949Z,54.84
2023-04-23T10:35:13.111Z,55.60
2023-04-23T10:37:43.536Z,54.69
2023-04-23T10:40:16.529Z,53.88
2023-04-23T10:42:47.635Z,54.93
2023-04-23T10:45:25.437Z,54.44
2023-04-23T10:47:58.081Z,53.48
2023-04-23T10:50:30.162Z,54.24
2023-04-23T10:53:01.074Z,51.64
2023-04-23T10:55:33.004Z,52.37
2023-04-23T10:58:05.449Z,54.27
2023-04-23T11:00:49.163Z,54.27
2023-04-23T11:03:32.430Z,52.87
2023-04-23T11:06:05.171Z,51.50
2023-04-23T11:08:37.815Z,52.24
2023-04-23T11:11:11.338Z,51.48
2023-04-23T11:13:54.564Z,51.47
2023-04-23T11:16:27.289Z,50.90
2023-04-23T11:19:06.848Z,51.94
2023-04-23T11:22:01.770Z,52.50
2023-04-23T11:24:33.467Z,53.25
2023-04-23T11:27:04.540Z,51.22
2023-04-23T11:29:34.435Z,52.09
2023-04-23T11:32:10.993Z,53.34
2023-04-23T11:34:43.660Z,51.83
2023-04-23T11:37:15.811Z,52.40
2023-04-23T11:39:47.815Z,51.78
2023-04-23T11:42:20.438Z,52.12
2023-04-23T11:44:50.993Z,51.94
2023-04-23T11:47:23.836Z,50.15
2023-04-23T11:49:53.732Z,49.59
2023-04-23T11:52:23.719Z,52.12
2023-04-23T11:54:53.587Z,50.94
2023-04-23T11:57:24.834Z,51.73
2023-04-23T11:59:56.906Z,49.27
2023-04-23T12:02:29.985Z,49.87
2023-04-23T12:04:59.993Z,48.01
2023-04-23T12:07:38.356Z,49.69
2023-04-23T12:10:09.462Z,50.16
2023-04-23T12:12:40.650Z,50.68
2023-04-23T12:15:11.649Z,50.09
2023-04-23T12:17:46.827Z,48.70
2023-04-23T12:20:21.396Z,49.27
2023-04-23T12:22:51.720Z,49.41
2023-04-23T12:25:25.741Z,48.08
2023-04-23T12:27:55.628Z,45.46
2023-04-23T12:30:25.779Z,46.18
2023-04-23T12:33:02.695Z,47.98
2023-04-23T12:35:43.135Z,47.40
2023-04-23T12:38:27.530Z,45.59
2023-04-23T12:40:58.581Z,46.70
2023-04-23T12:43:30.194Z,44.58
2023-04-23T12:46:00.220Z,44.60
2023-04-23T12:48:33.382Z,45.01
2023-04-23T12:51:04.987Z,47.16
2023-04-23T12:53:34.913Z,47.68
2023-04-23T12:56:05.295Z,47.47
2023-04-23T12:58:35.246Z,46.85
2023-04-23T13:01:05.290Z,46.18
2023-04-23T13:03:37.814Z,47.16
2023-04-23T13:06:08.220Z,47.58
2023-04-23T13:08:38.310Z,47.35
2023-04-23T13:11:08.528Z,46.32
2023-04-23T13:13:38.381Z,45.86
2023-04-23T13:16:08.684Z,43.59
2023-04-23T13:18:41.327Z,45.01
2023-04-23T13:21:12.727Z,45.16
2023-04-23T13:23:42.559Z,45.52
2023-04-23T13:26:12.610Z,45.01
2023-04-23T13:28:43.024Z,43.83
2023-04-23T13:31:15.415Z,43.40
2023-04-23T13:33:47.950Z,42.74
2023-04-23T13:36:17.895Z,41.47
2023-04-23T13:38:47.821Z,42.90
2023-04-23T13:41:17.727Z,40.87
2023-04-23T13:43:47.627Z,42.02
2023-04-23T13:46:17.603Z,43.08
2023-04-23T13:48:50.145Z,42.48
2023-04-23T13:51:34.134Z,41.00
2023-04-23T13:54:05.149Z,42.20
2023-04-23T13:56:37.182Z,42.42
2023-04-23T13:59:18.420Z,42.55
2023-04-23T14:01:50.353Z,42.12
2023-04-23T14:04:25.536Z,41.99
2023-04-23T14:06:55.908Z,42.45
2023-04-23T14:09:26.151Z,43.54
2023-04-23T14:11:56.379Z,42.52
2023-04-23T14:14:26.295Z,43.29
2023-04-23T14:16:56.229Z,42.34
2023-04-23T14:19:30.648Z,43.51
2023-04-23T14:22:00.633Z,43.69
2023-04-23T14:24:37.548Z,42.22
2023-04-23T14:27:07.715Z,42.50
2023-04-23T14:29:43.268Z,43.40
2023-04-23T14:32:13.986Z,43.49
2023-04-23T14:34:47.529Z,43.24
2023-04-23T14:37:17.781Z,44.39
2023-04-23T14:39:47.724Z,42.51
2023-04-23T14:42:18.013Z,43.44
2023-04-23T14:44:47.943Z,43.97
2023-04-23T14:47:19.600Z,44.14
2023-04-23T14:49:53.394Z,44.42
2023-04-23T14:52:26.125Z,44.14
2023-04-23T14:54:56.183Z,44.17
2023-04-23T14:57:26.364Z,43.89
2023-04-23T14:59:56.698Z,43.90
2023-04-23T15:02:27.139Z,42.89
2023-04-23T15:04:59.991Z,43.73
2023-04-23T15:07:31.993Z,43.17
2023-04-23T15:10:06.475Z,42.38
2023-04-23T15:12:53.409Z,43.22
2023-04-23T15:15:48.500Z,43.69
2023-04-23T15:18:19.217Z,42.98
2023-04-23T15:20:51.777Z,42.56
2023-04-23T15:23:22.342Z,42.59
2023-04-23T15:25:52.714Z,43.50
2023-04-23T15:28:23.785Z,43.42
2023-04-23T15:30:53.746Z,43.70
2023-04-23T15:33:23.626Z,44.45
2023-04-23T15:35:59.839Z,43.84
2023-04-23T15:38:30.900Z,45.50
2023-04-23T15:41:01.281Z,46.35
2023-04-23T15:43:31.653Z,48.15
2023-04-23T15:46:01.733Z,48.56
2023-04-23T15:48:31.742Z,49.16
2023-04-23T15:51:04.388Z,49.96
2023-04-23T15:53:34.381Z,50.40
2023-04-23T15:56:05.098Z,52.75
2023-04-23T15:58:35.071Z,53.24
2023-04-23T16:01:07.628Z,53.85
2023-04-23T16:03:37.880Z,55.86
2023-04-23T16:06:12.043Z,58.12
2023-04-23T16:08:42.631Z,62.16
2023-04-23T16:11:13.526Z,61.47
2023-04-23T16:13:43.506Z,62.04
2023-04-23T16:16:13.438Z,62.93
2023-04-23T16:18:43.503Z,64.22
2023-04-23T16:21:16.450Z,64.45
2023-04-23T16:23:46.392Z,64.96
2023-04-23T16:26:16.303Z,65.21
2023-04-23T16:28:51.853Z,65.18
2023-04-23T16:31:31.019Z,65.29
2023-04-23T16:34:01.296Z,65.65
2023-04-23T16:36:37.221Z,66.87
2023-04-23T16:39:07.275Z,66.72
2023-04-23T16:41:37.276Z,67.49
2023-04-23T16:44:07.224Z,68.96
2023-04-23T16:46:37.438Z,68.29
2023-04-23T16:49:07.737Z,68.58
2023-04-23T16:51:40.324Z,68.81
2023-04-23T16:54:10.301Z,68.85
2023-04-23T16:56:40.339Z,69.82
2023-04-23T16:59:10.215Z,70.48
2023-04-23T17:01:40.318Z,70.80
2023-04-23T17:04:10.801Z,71.35
2023-04-23T17:06:43.506Z,72.52
2023-04-23T17:09:13.452Z,73.01
2023-04-23T17:11:43.296Z,73.62
2023-04-23T17:14:13.325Z,73.85
2023-04-23T17:16:43.686Z,74.05
2023-04-23T17:19:13.861Z,74.48
2023-04-23T17:21:46.746Z,74.87
2023-04-23T17:24:16.790Z,74.34
2023-04-23T17:26:48.476Z,73.86
2023-04-23T17:29:18.439Z,72.93
2023-04-23T17:31:48.599Z,73.07
2023-04-23T17:34:18.783Z,72.91
2023-04-23T17:36:51.642Z,73.06
2023-04-23T17:39:23.891Z,73.53
2023-04-23T17:41:53.940Z,74.03
2023-04-23T17:44:23.984Z,74.17
2023-04-23T17:46:55.574Z,73.82
2023-04-23T17:49:25.522Z,74.22
2023-04-23T17:51:58.140Z,76.09
2023-04-23T17:54:29.064Z,75.53
2023-04-23T17:56:59.346Z,76.68
2023-04-23T17:59:29.360Z,76.37
2023-04-23T18:01:59.476Z,76.32
2023-04-23T18:04:30.719Z,76.19
2023-04-23T18:07:03.449Z,76.39
2023-04-23T18:09:33.529Z,76.69
2023-04-23T18:12:04.303Z,76.73
2023-04-23T18:14:34.303Z,77.19
2023-04-23T18:17:04.382Z,77.40
2023-04-23T18:19:34.479Z,77.67
2023-04-23T18:22:08.481Z,78.15
2023-04-23T18:24:38.616Z,77.67
2023-04-23T18:27:08.630Z,77.64
2023-04-23T18:29:38.750Z,77.60
2023-04-23T18:32:08.868Z,79.50
2023-04-23T18:34:41.995Z,78.86
2023-04-23T18:37:35.628Z,79.40
2023-04-23T18:40:05.938Z,78.72
2023-04-23T18:42:35.931Z,78.85
2023-04-23T18:45:06.318Z,78.88
2023-04-23T18:47:44.368Z,78.87
2023-04-23T18:50:33.683Z,79.78
2023-04-23T18:53:06.419Z,78.94
2023-04-23T18:55:38.214Z,78.58
2023-04-23T18:58:08.981Z,78.79
2023-04-23T19:00:40.470Z,79.06
2023-04-23T19:03:23.665Z,78.98
2023-04-23T19:05:55.728Z,79.53
2023-04-23T19:08:29.044Z,79.46
2023-04-23T19:10:59.575Z,81.19
2023-04-23T19:13:29.579Z,80.10
2023-04-23T19:15:59.803Z,80.42
2023-04-23T19:18:31.117Z,80.26
2023-04-23T19:21:01.339Z,81.54
2023-04-23T19:23:33.888Z,80.83
2023-04-23T19:26:04.133Z,80.50
2023-04-23T19:28:34.822Z,81.53
2023-04-23T19:31:06.863Z,81.08
2023-04-23T19:33:37.756Z,81.05
2023-04-23T19:36:08.250Z,81.42
2023-04-23T19:38:42.549Z,81.88
2023-04-23T19:41:12.599Z,81.34
2023-04-23T19:43:42.744Z,82.15
2023-04-23T19:46:12.866Z,81.63
2023-04-23T19:48:42.805Z,82.80
2023-04-23T19:51:12.852Z,83.23
2023-04-23T19:53:45.557Z,82.54
2023-04-23T19:56:15.721Z,82.77
2023-04-23T19:58:46.087Z,83.52
2023-04-23T20:01:16.239Z,82.76
2023-04-23T20:03:48.122Z,83.90
2023-04-23T20:06:18.195Z,82.96
2023-04-23T20:09:07.841Z,82.90
2023-04-23T20:11:38.573Z,82.23
2023-04-23T20:14:08.637Z,82.21
2023-04-23T20:16:39.024Z,81.68
2023-04-23T20:19:11.778Z,81.43
2023-04-23T20:21:42.946Z,81.50
2023-04-23T20:24:16.950Z,81.63
2023-04-23T20:26:46.907Z,81.38
2023-04-23T20:29:17.210Z,81.07
2023-04-23T20:31:49.657Z,80.46
2023-04-23T20:34:21.528Z,79.30
2023-04-23T20:36:51.424Z,77.81
2023-04-23T20:39:24.509Z,77.45
2023-04-23T20:41:55.171Z,77.24
2023-04-23T20:44:26.322Z,77.45
2023-04-23T20:46:58.046Z,77.62
2023-04-23T20:49:28.234Z,78.24
2023-04-23T20:51:58.153Z,79.40
2023-04-23T20:54:31.332Z,80.14
2023-04-23T20:57:02.570Z,80.09
2023-04-23T20:59:32.915Z,80.80
2023-04-23T21:02:04.068Z,80.05
2023-04-23T21:04:34.075Z,80.79
2023-04-23T21:07:04.308Z,81.66
2023-04-23T21:09:37.170Z,82.17
2023-04-23T21:12:07.759Z,82.91
2023-04-23T21:14:37.653Z,83.10
2023-04-23T21:17:07.638Z,83.79
2023-04-23T21:19:37.589Z,84.04
2023-04-23T21:22:08.897Z,84.94
2023-04-23T21:24:41.628Z,86.21
2023-04-23T21:27:12.568Z,85.93
2023-04-23T21:29:42.757Z,85.08
2023-04-23T21:32:13.038Z,85.35
2023-04-23T21:34:43.142Z,84.48
2023-04-23T21:37:13.238Z,84.42
2023-04-23T21:39:46.046Z,83.73
2023-04-23T21:42:16.343Z,83.92
2023-04-23T21:44:46.456Z,82.94
2023-04-23T21:47:16.770Z,82.72
2023-04-23T21:49:46.841Z,82.74
2023-04-23T21:52:17.635Z,82.45
2023-04-23T21:54:50.333Z,82.55
2023-04-23T21:57:20.274Z,82.11
2023-04-23T21:59:50.518Z,81.19
2023-04-23T22:02:20.571Z,81.05
2023-04-23T22:04:50.692Z,80.88
2023-04-23T22:07:21.052Z,81.13
2023-04-23T22:09:53.634Z,81.19
2023-04-23T22:12:23.757Z,81.12
2023-04-23T22:14:54.096Z,80.94
2023-04-23T22:17:26.477Z,80.39
2023-04-23T22:19:57.267Z,80.60
2023-04-23T22:22:27.219Z,80.77
2023-04-23T22:24:59.799Z,80.23
2023-04-23T22:27:34.751Z,80.68
2023-04-23T22:30:06.834Z,80.06
2023-04-23T22:32:36.883Z,80.02
2023-04-23T22:35:08.093Z,79.51
2023-04-23T22:37:38.592Z,79.75
2023-04-23T22:40:13.073Z,79.64
2023-04-23T22:42:42.943Z,79.55
2023-04-23T22:45:13.772Z,79.17
2023-04-23T22:47:44.228Z,79.31
2023-04-23T22:50:14.528Z,79.51
2023-04-23T22:52:48.021Z,79.82
2023-04-23T22:55:20.883Z,79.28
2023-04-23T22:57:51.385Z,79.44
2023-04-23T23:00:21.357Z,79.37
2023-04-23T23:02:51.326Z,79.23
2023-04-23T23:05:21.638Z,79.50
2023-04-23T23:07:52.126Z,78.82
2023-04-23T23:10:24.623Z,78.69
2023-04-23T23:12:54.489Z,78.64
2023-04-23T23:15:24.787Z,78.67
2023-04-23T23:17:54.778Z,79.07
2023-04-23T23:20:24.886Z,79.29
2023-04-23T23:22:54.816Z,79.16
2023-04-23T23:25:27.334Z,79.29
2023-04-23T23:27:57.289Z,79.50
2023-04-23T23:30:27.344Z,79.04
2023-04-23T23:32:59.917Z,79.18
2023-04-23T23:35:30.185Z,79.14
2023-04-23T23:38:00.114Z,79.24
2023-04-23T23:40:32.797Z,79.78
2023-04-23T23:43:02.669Z,79.45
2023-04-23T23:45:32.722Z,79.19
2023-04-23T23:48:02.732Z,79.11
2023-04-23T23:50:32.704Z,79.03
2023-04-23T23:53:02.661Z,78.55
2023-04-23T23:55:37.891Z,78.49
2023-04-23T23:58:07.774Z,78.35
